createdAt,value
2017-08-25T00:00:24.679Z,18.00
2017-08-25T00:02:53.196Z,18.00
2017-08-25T00:05:20.767Z,17.90
2017-08-25T00:07:47.745Z,17.90
2017-08-25T00:10:15.537Z,17.90
2017-08-25T00:12:46.459Z,17.90
2017-08-25T00:15:19.732Z,17.90
2017-08-25T00:17:52.436Z,17.80
2017-08-25T00:20:25.569Z,17.80
2017-08-25T00:22:56.971Z,17.70
2017-08-25T00:25:28.147Z,17.80
2017-08-25T00:27:58.548Z,17.70
2017-08-25T00:30:27.225Z,17.70
2017-08-25T00:32:56.608Z,17.60
2017-08-25T00:35:28.059Z,17.70
2017-08-25T00:37:58.338Z,17.80
2017-08-25T00:40:28.662Z,17.70
2017-08-25T00:42:59.091Z,17.60
2017-08-25T00:45:28.280Z,17.50
2017-08-25T00:47:58.435Z,17.50
2017-08-25T00:50:28.193Z,17.50
2017-08-25T00:52:58.659Z,17.50
2017-08-25T00:55:29.646Z,17.50
2017-08-25T00:57:59.358Z,17.50
2017-08-25T01:00:29.302Z,17.40
2017-08-25T01:03:00.287Z,17.50
2017-08-25T01:05:29.025Z,17.40
2017-08-25T01:07:58.606Z,17.40
2017-08-25T01:10:28.252Z,17.40
2017-08-25T01:12:55.198Z,17.30
2017-08-25T01:15:24.698Z,17.30
2017-08-25T01:17:55.356Z,17.20
2017-08-25T01:20:26.473Z,17.20
2017-08-25T01:22:55.254Z,17.30
2017-08-25T01:25:27.786Z,17.20
2017-08-25T01:27:58.141Z,17.30
2017-08-25T01:30:28.222Z,17.40
2017-08-25T01:32:58.440Z,17.30
2017-08-25T01:35:29.528Z,17.30
2017-08-25T01:37:55.915Z,17.30
2017-08-25T01:40:26.337Z,17.40
2017-08-25T01:42:59.395Z,17.50
2017-08-25T01:45:27.638Z,17.50
2017-08-25T01:47:57.414Z,17.60
2017-08-25T01:50:29.231Z,17.60
2017-08-25T01:52:56.491Z,17.60
2017-08-25T01:55:27.375Z,17.60
2017-08-25T01:57:56.333Z,17.60
2017-08-25T02:00:24.195Z,17.60
2017-08-25T02:02:57.977Z,17.50
2017-08-25T02:05:27.434Z,17.50
2017-08-25T02:07:58.799Z,17.90
2017-08-25T02:10:27.513Z,17.50
2017-08-25T02:12:58.114Z,17.50
2017-08-25T02:15:28.099Z,17.50
2017-08-25T02:17:56.510Z,17.40
2017-08-25T02:20:27.676Z,17.30
2017-08-25T02:22:57.242Z,17.20
2017-08-25T02:25:24.584Z,17.20
2017-08-25T02:27:58.282Z,17.20
2017-08-25T02:30:28.370Z,17.20
2017-08-25T02:32:58.357Z,17.10
2017-08-25T02:35:26.645Z,17.20
2017-08-25T02:37:57.149Z,17.20
2017-08-25T02:40:27.429Z,17.30
2017-08-25T02:42:59.280Z,17.20
2017-08-25T02:45:28.711Z,16.70
2017-08-25T02:47:58.273Z,16.90
2017-08-25T02:50:28.798Z,17.10
2017-08-25T02:53:00.344Z,17.10
2017-08-25T02:55:28.210Z,17.10
2017-08-25T02:57:57.956Z,17.00
2017-08-25T03:00:29.713Z,17.10
2017-08-25T03:02:59.714Z,17.20
2017-08-25T03:05:29.712Z,17.10
2017-08-25T03:07:59.282Z,17.10
2017-08-25T03:10:28.460Z,17.10
2017-08-25T03:12:57.741Z,17.10
2017-08-25T03:15:28.882Z,17.10
2017-08-25T03:17:58.722Z,17.10
2017-08-25T03:20:29.187Z,17.10
2017-08-25T03:22:59.760Z,17.10
2017-08-25T03:25:30.394Z,17.10
2017-08-25T03:27:58.877Z,17.10
2017-08-25T03:30:28.399Z,17.00
2017-08-25T03:32:58.230Z,17.00
2017-08-25T03:35:29.448Z,17.00
2017-08-25T03:37:58.804Z,16.90
2017-08-25T03:40:28.721Z,16.80
2017-08-25T03:42:59.105Z,16.80
2017-08-25T03:45:27.734Z,16.70
2017-08-25T03:47:56.437Z,16.70
2017-08-25T03:50:27.148Z,16.60
2017-08-25T03:52:58.010Z,16.50
2017-08-25T03:55:29.439Z,16.40
2017-08-25T03:58:00.244Z,16.60
2017-08-25T04:00:29.782Z,16.40
2017-08-25T04:02:59.910Z,16.50
2017-08-25T04:05:30.220Z,16.50
2017-08-25T04:07:58.380Z,16.50
2017-08-25T04:10:29.397Z,16.40
2017-08-25T04:12:58.425Z,16.40
2017-08-25T04:15:30.467Z,16.40
2017-08-25T04:17:57.412Z,16.40
2017-08-25T04:20:28.978Z,16.30
2017-08-25T04:22:58.198Z,16.30
2017-08-25T04:25:25.825Z,16.30
2017-08-25T04:27:58.643Z,16.20
2017-08-25T04:30:29.516Z,16.30
2017-08-25T04:32:56.010Z,16.20
2017-08-25T04:35:22.633Z,16.10
2017-08-25T04:37:49.245Z,15.90
2017-08-25T04:40:16.106Z,15.90
2017-08-25T04:42:43.220Z,16.20
2017-08-25T04:45:09.802Z,16.10
2017-08-25T04:47:36.129Z,16.10
2017-08-25T04:50:02.445Z,16.10
2017-08-25T04:52:28.713Z,16.10
2017-08-25T04:54:56.082Z,16.20
2017-08-25T04:57:24.170Z,16.20
2017-08-25T04:59:50.965Z,16.30
2017-08-25T05:02:20.141Z,16.30
2017-08-25T05:04:48.484Z,16.30
2017-08-25T05:07:16.067Z,16.40
2017-08-25T05:09:47.933Z,16.40
2017-08-25T05:12:31.073Z,16.40
2017-08-25T05:14:59.054Z,16.40
2017-08-25T05:17:28.806Z,16.40
2017-08-25T05:19:57.875Z,16.50
2017-08-25T05:22:28.849Z,16.50
2017-08-25T05:24:58.413Z,16.60
2017-08-25T05:27:27.957Z,16.70
2017-08-25T05:29:59.384Z,16.70
2017-08-25T05:32:30.262Z,16.50
2017-08-25T05:34:58.945Z,16.40
2017-08-25T05:37:28.300Z,16.70
2017-08-25T05:39:58.537Z,16.80
2017-08-25T05:42:28.528Z,16.80
2017-08-25T05:44:59.402Z,16.90
2017-08-25T05:47:31.955Z,17.10
2017-08-25T05:50:00.674Z,17.20
2017-08-25T05:52:29.622Z,17.30
2017-08-25T05:54:58.230Z,17.00
2017-08-25T05:57:28.150Z,16.80
2017-08-25T05:59:58.045Z,16.60
2017-08-25T06:02:28.725Z,16.30
2017-08-25T06:04:58.542Z,16.50
2017-08-25T06:07:28.220Z,16.70
2017-08-25T06:09:56.924Z,17.00
2017-08-25T06:12:28.082Z,16.70
2017-08-25T06:15:00.188Z,16.70
2017-08-25T06:17:28.805Z,16.80
2017-08-25T06:19:58.189Z,16.60
2017-08-25T06:22:28.365Z,17.20
2017-08-25T06:24:58.679Z,17.20
2017-08-25T06:27:28.100Z,17.40
2017-08-25T06:29:57.706Z,17.50
2017-08-25T06:32:26.999Z,17.30
2017-08-25T06:34:57.283Z,16.90
2017-08-25T06:37:28.882Z,17.00
2017-08-25T06:39:58.605Z,17.20
2017-08-25T06:42:28.782Z,17.30
2017-08-25T06:44:58.939Z,17.30
2017-08-25T06:47:28.618Z,18.00
2017-08-25T06:49:58.589Z,18.40
2017-08-25T06:52:28.790Z,18.70
2017-08-25T06:54:58.673Z,18.90
2017-08-25T06:57:28.813Z,19.10
2017-08-25T06:59:57.780Z,19.40
2017-08-25T07:02:28.853Z,19.70
2017-08-25T07:04:58.622Z,19.90
2017-08-25T07:07:28.229Z,19.90
2017-08-25T07:09:56.947Z,19.70
2017-08-25T07:12:28.798Z,19.80
2017-08-25T07:14:58.751Z,20.70
2017-08-25T07:17:29.752Z,20.70
2017-08-25T07:19:57.846Z,20.80
2017-08-25T07:22:28.708Z,20.40
2017-08-25T07:24:58.873Z,20.50
2017-08-25T07:27:40.746Z,21.00
2017-08-25T07:30:31.573Z,20.90
2017-08-25T07:33:02.058Z,21.10
2017-08-25T07:35:28.608Z,21.20
2017-08-25T07:38:02.701Z,21.60
2017-08-25T07:40:32.887Z,21.90
2017-08-25T07:43:01.165Z,22.00
2017-08-25T07:45:28.316Z,22.20
2017-08-25T07:50:33.727Z,22.70
2017-08-25T07:53:02.012Z,22.70
2017-08-25T07:55:28.577Z,22.20
2017-08-25T07:57:57.683Z,22.00
2017-08-25T08:00:31.669Z,21.90
2017-08-25T08:03:02.039Z,21.50
2017-08-25T08:05:29.177Z,21.10
2017-08-25T08:07:58.878Z,20.90
2017-08-25T08:10:36.893Z,21.20
2017-08-25T08:13:04.565Z,21.50
2017-08-25T08:15:30.845Z,21.10
2017-08-25T08:17:58.565Z,21.10
2017-08-25T08:20:30.914Z,21.60
2017-08-25T08:23:01.574Z,21.70
2017-08-25T08:25:29.449Z,21.30
2017-08-25T08:27:56.958Z,21.70
2017-08-25T08:30:33.513Z,21.90
2017-08-25T08:33:01.589Z,21.20
2017-08-25T08:35:28.481Z,21.80
2017-08-25T08:37:55.488Z,21.50
2017-08-25T08:40:23.313Z,21.80
2017-08-25T08:42:55.916Z,21.90
2017-08-25T08:45:28.786Z,21.90
2017-08-25T08:47:58.798Z,22.40
2017-08-25T08:50:25.617Z,22.70
2017-08-25T08:53:00.303Z,21.90
2017-08-25T08:55:29.919Z,22.20
2017-08-25T08:57:57.865Z,21.40
2017-08-25T09:00:27.543Z,21.90
2017-08-25T09:03:02.810Z,22.30
2017-08-25T09:05:36.420Z,22.50
2017-08-25T09:08:02.910Z,22.70
2017-08-25T09:10:29.388Z,22.40
2017-08-25T09:13:02.530Z,22.40
2017-08-25T09:15:32.495Z,21.50
2017-08-25T09:17:59.441Z,22.20
2017-08-25T09:20:28.269Z,21.90
2017-08-25T09:23:06.835Z,22.30
2017-08-25T09:25:34.498Z,22.90
2017-08-25T09:28:00.991Z,22.30
2017-08-25T09:30:28.054Z,22.80
2017-08-25T09:33:07.774Z,22.60
2017-08-25T09:35:34.889Z,22.80
2017-08-25T09:38:01.637Z,22.60
2017-08-25T09:40:29.223Z,22.30
2017-08-25T09:43:03.487Z,23.20
2017-08-25T09:45:35.051Z,23.70
2017-08-25T09:48:02.851Z,23.90
2017-08-25T09:50:29.326Z,24.40
2017-08-25T09:52:55.876Z,23.40
2017-08-25T09:55:31.659Z,23.60
2017-08-25T09:57:58.687Z,23.70
2017-08-25T10:00:25.671Z,23.90
2017-08-25T10:02:53.832Z,23.70
2017-08-25T10:05:35.061Z,24.30
2017-08-25T10:08:02.003Z,24.80
2017-08-25T10:10:28.289Z,24.70
2017-08-25T10:12:54.892Z,24.90
2017-08-25T10:15:21.979Z,24.70
2017-08-25T10:17:51.588Z,25.10
2017-08-25T10:20:20.140Z,25.20
2017-08-25T10:22:50.589Z,25.30
2017-08-25T10:25:21.363Z,25.60
2017-08-25T10:27:52.278Z,25.80
2017-08-25T10:30:20.884Z,25.30
2017-08-25T10:32:50.119Z,24.60
2017-08-25T10:38:38.986Z,23.70
2017-08-25T10:41:18.411Z,24.30
2017-08-25T10:43:59.892Z,24.30
2017-08-25T10:46:27.279Z,24.70
2017-08-25T10:48:55.407Z,24.10
2017-08-25T10:51:22.782Z,24.20
2017-08-25T10:53:53.370Z,24.80
2017-08-25T10:56:23.642Z,25.10
2017-08-25T10:58:51.678Z,25.20
2017-08-25T11:01:20.985Z,25.60
2017-08-25T11:03:49.046Z,25.60
2017-08-25T11:06:22.009Z,25.80
2017-08-25T11:08:51.893Z,26.00
2017-08-25T11:11:22.992Z,25.90
2017-08-25T11:13:52.785Z,26.20
2017-08-25T11:16:26.500Z,26.30
2017-08-25T11:19:01.054Z,26.30
2017-08-25T11:21:28.374Z,26.60
2017-08-25T11:23:55.570Z,26.10
2017-08-25T11:26:25.086Z,26.40
2017-08-25T11:28:59.126Z,26.00
2017-08-25T11:31:26.674Z,25.80
2017-08-25T11:33:57.254Z,25.20
2017-08-25T11:36:25.881Z,25.70
2017-08-25T11:38:59.147Z,26.10
2017-08-25T11:41:27.782Z,25.70
2017-08-25T11:43:55.882Z,25.60
2017-08-25T11:46:25.282Z,26.00
2017-08-25T11:51:29.464Z,25.00
2017-08-25T11:53:56.015Z,25.40
2017-08-25T11:56:26.399Z,24.70
2017-08-25T11:58:57.872Z,25.10
2017-08-25T12:01:35.051Z,25.40
2017-08-25T12:04:03.765Z,25.80
2017-08-25T12:06:31.243Z,26.20
2017-08-25T12:08:59.085Z,26.00
2017-08-25T12:11:31.005Z,26.20
2017-08-25T12:16:40.978Z,26.30
2017-08-25T12:19:08.184Z,26.60
2017-08-25T12:21:34.661Z,25.10
2017-08-25T12:24:09.304Z,25.30
2017-08-25T12:26:39.038Z,25.70
2017-08-25T12:29:06.418Z,26.00
2017-08-25T12:31:32.990Z,26.00
2017-08-25T12:33:59.520Z,25.70
2017-08-25T12:36:35.618Z,25.80
2017-08-25T12:39:03.970Z,25.70
2017-08-25T12:41:30.744Z,25.00
2017-08-25T12:43:58.731Z,25.20
2017-08-25T12:46:33.597Z,25.10
2017-08-25T12:49:00.739Z,25.40
2017-08-25T12:51:28.962Z,25.70
2017-08-25T12:53:58.980Z,25.80
2017-08-25T12:56:37.511Z,25.60
2017-08-25T12:59:04.260Z,25.50
2017-08-25T13:01:30.535Z,25.10
2017-08-25T13:03:56.993Z,25.20
2017-08-25T13:06:23.890Z,25.50
2017-08-25T13:08:59.824Z,25.10
2017-08-25T13:11:26.757Z,25.40
2017-08-25T13:13:53.661Z,25.80
2017-08-25T13:16:23.538Z,25.50
2017-08-25T13:19:01.877Z,25.20
2017-08-25T13:21:29.778Z,25.30
2017-08-25T13:23:56.105Z,25.50
2017-08-25T13:26:25.581Z,25.80
2017-08-25T13:28:59.590Z,25.90
2017-08-25T13:31:28.407Z,25.90
2017-08-25T13:33:55.918Z,26.10
2017-08-25T13:36:25.691Z,25.80
2017-08-25T13:39:06.296Z,25.30
2017-08-25T13:41:34.616Z,25.50
2017-08-25T13:44:01.109Z,25.60
2017-08-25T13:46:27.698Z,25.50
2017-08-25T13:49:02.121Z,25.80
2017-08-25T13:51:31.175Z,26.00
2017-08-25T13:53:57.671Z,25.60
2017-08-25T13:56:24.313Z,25.30
2017-08-25T13:58:52.497Z,25.40
2017-08-25T14:01:21.165Z,25.00
2017-08-25T14:03:49.246Z,25.00
2017-08-25T14:06:16.598Z,25.30
2017-08-25T14:08:44.895Z,25.40
2017-08-25T14:11:13.528Z,25.50
2017-08-25T14:13:48.119Z,25.70
2017-08-25T14:16:17.159Z,25.80
2017-08-25T14:18:45.134Z,25.30
2017-08-25T14:23:50.313Z,25.70
2017-08-25T14:26:22.703Z,25.80
2017-08-25T14:28:52.224Z,26.00
2017-08-25T14:31:19.831Z,25.80
2017-08-25T14:33:49.296Z,26.00
2017-08-25T14:36:17.963Z,26.00
2017-08-25T14:38:46.893Z,25.80
2017-08-25T14:41:16.580Z,25.50
2017-08-25T14:43:45.478Z,25.50
2017-08-25T14:46:17.052Z,25.20
2017-08-25T14:48:47.416Z,25.20
2017-08-25T14:51:17.143Z,24.70
2017-08-25T14:53:46.366Z,24.90
2017-08-25T14:56:22.908Z,24.60
2017-08-25T14:58:52.089Z,24.70
2017-08-25T15:01:24.033Z,24.90
2017-08-25T15:03:51.988Z,24.60
2017-08-25T15:06:20.097Z,24.60
2017-08-25T15:08:51.163Z,24.00
2017-08-25T15:11:21.728Z,24.50
2017-08-25T15:13:49.490Z,24.90
2017-08-25T15:16:18.686Z,24.50
2017-08-25T15:18:47.665Z,24.30
2017-08-25T15:21:20.588Z,24.20
2017-08-25T15:23:51.376Z,24.50
2017-08-25T15:26:19.046Z,24.60
2017-08-25T15:28:50.270Z,24.80
2017-08-25T15:31:22.418Z,24.20
2017-08-25T15:33:53.641Z,24.50
2017-08-25T15:36:25.290Z,24.70
2017-08-25T15:38:53.338Z,24.60
2017-08-25T15:41:23.703Z,24.80
2017-08-25T15:43:53.424Z,24.50
2017-08-25T15:46:22.143Z,24.70
2017-08-25T15:48:49.931Z,24.30
2017-08-25T15:51:17.691Z,24.30
2017-08-25T15:53:47.551Z,24.20
2017-08-25T15:56:16.804Z,24.20
2017-08-25T15:58:48.130Z,24.50
2017-08-25T16:01:21.343Z,24.50
2017-08-25T16:03:52.394Z,24.30
2017-08-25T16:06:23.421Z,24.30
2017-08-25T16:08:51.275Z,24.10
2017-08-25T16:11:18.712Z,24.20
2017-08-25T16:13:48.164Z,24.20
2017-08-25T16:16:17.728Z,24.30
2017-08-25T16:18:47.632Z,23.90
2017-08-25T16:21:17.498Z,24.30
2017-08-25T16:23:48.202Z,24.50
2017-08-25T16:26:16.987Z,24.40
2017-08-25T16:28:47.618Z,24.40
2017-08-25T16:31:17.024Z,24.20
2017-08-25T16:33:47.106Z,24.40
2017-08-25T16:36:17.058Z,24.30
2017-08-25T16:38:48.799Z,24.30
2017-08-25T16:41:20.509Z,24.00
2017-08-25T16:43:52.142Z,24.00
2017-08-25T16:46:20.216Z,24.10
2017-08-25T16:48:47.680Z,24.20
2017-08-25T16:51:20.836Z,24.20
2017-08-25T16:53:50.104Z,24.00
2017-08-25T16:56:20.059Z,23.90
2017-08-25T16:58:52.746Z,24.00
2017-08-25T17:01:22.029Z,23.60
2017-08-25T17:03:53.080Z,23.40
2017-08-25T17:06:23.852Z,23.30
2017-08-25T17:08:56.926Z,23.30
2017-08-25T17:11:25.402Z,23.20
2017-08-25T17:13:53.762Z,23.40
2017-08-25T17:16:26.996Z,23.70
2017-08-25T17:18:55.179Z,23.80
2017-08-25T17:21:22.926Z,23.30
2017-08-25T17:23:58.606Z,23.40
2017-08-25T17:26:25.193Z,23.50
2017-08-25T17:28:53.087Z,23.40
2017-08-25T17:31:23.171Z,23.60
2017-08-25T17:36:25.234Z,23.50
2017-08-25T17:38:51.762Z,23.70
2017-08-25T17:41:19.416Z,23.50
2017-08-25T17:43:50.272Z,23.60
2017-08-25T17:46:21.775Z,23.50
2017-08-25T17:48:50.413Z,23.50
2017-08-25T17:51:19.994Z,23.60
2017-08-25T17:53:49.121Z,23.20
2017-08-25T17:56:17.771Z,23.30
2017-08-25T17:58:51.165Z,23.50
2017-08-25T18:01:21.591Z,23.40
2017-08-25T18:03:50.636Z,23.30
2017-08-25T18:06:21.432Z,23.30
2017-08-25T18:08:55.336Z,23.20
2017-08-25T18:11:23.188Z,23.30
2017-08-25T18:13:50.955Z,23.30
2017-08-25T18:16:20.047Z,23.10
2017-08-25T18:21:20.915Z,23.00
2017-08-25T18:23:48.978Z,22.80
2017-08-25T18:26:19.312Z,22.80
2017-08-25T18:28:48.649Z,22.90
2017-08-25T18:31:23.016Z,23.00
2017-08-25T18:33:51.237Z,23.10
2017-08-25T18:36:19.129Z,23.10
2017-08-25T18:38:49.219Z,23.10
2017-08-25T18:41:26.247Z,23.20
2017-08-25T18:43:55.755Z,23.20
2017-08-25T18:46:25.841Z,23.20
2017-08-25T18:48:53.508Z,23.20
2017-08-25T18:51:28.871Z,23.10
2017-08-25T18:53:57.211Z,23.20
2017-08-25T18:56:25.425Z,23.10
2017-08-25T18:58:52.672Z,23.10
2017-08-25T19:01:31.182Z,23.10
2017-08-25T19:03:59.706Z,23.10
2017-08-25T19:06:27.164Z,23.10
2017-08-25T19:08:56.832Z,23.10
2017-08-25T19:11:25.908Z,23.10
2017-08-25T19:14:00.129Z,23.00
2017-08-25T19:16:28.961Z,22.70
2017-08-25T19:18:56.003Z,22.80
2017-08-25T19:21:23.860Z,22.60
2017-08-25T19:23:57.681Z,22.50
2017-08-25T19:26:25.338Z,22.50
2017-08-25T19:28:53.526Z,22.60
2017-08-25T19:31:21.850Z,22.60
2017-08-25T19:33:49.414Z,22.40
2017-08-25T19:36:23.847Z,22.30
2017-08-25T19:38:53.795Z,22.30
2017-08-25T19:41:21.471Z,21.90
2017-08-25T19:43:49.409Z,22.50
2017-08-25T19:46:22.554Z,22.50
2017-08-25T19:48:54.526Z,22.50
2017-08-25T19:51:27.567Z,22.30
2017-08-25T19:54:03.025Z,22.40
2017-08-25T19:56:30.201Z,22.40
2017-08-25T19:58:58.192Z,22.20
2017-08-25T20:01:25.423Z,22.00
2017-08-25T20:04:02.776Z,22.00
2017-08-25T20:06:32.214Z,21.90
2017-08-25T20:08:58.720Z,22.10
2017-08-25T20:11:27.376Z,22.00
2017-08-25T20:13:55.399Z,22.20
2017-08-25T20:16:25.438Z,22.30
2017-08-25T20:18:53.538Z,22.20
2017-08-25T20:21:21.739Z,22.30
2017-08-25T20:23:50.523Z,21.70
2017-08-25T20:28:53.894Z,22.20
2017-08-25T20:31:22.383Z,22.30
2017-08-25T20:33:53.366Z,22.30
2017-08-25T20:36:30.400Z,22.40
2017-08-25T20:38:57.750Z,21.90
2017-08-25T20:41:28.455Z,22.10
2017-08-25T20:43:56.131Z,22.10
2017-08-25T20:46:32.429Z,22.00
2017-08-25T20:48:59.880Z,21.90
2017-08-25T20:51:27.486Z,22.10
2017-08-25T20:53:56.332Z,22.10
2017-08-25T20:56:24.480Z,21.80
2017-08-25T20:58:53.146Z,22.00
2017-08-25T21:01:22.786Z,22.00
2017-08-25T21:03:52.284Z,21.80
2017-08-25T21:06:20.262Z,21.80
2017-08-25T21:08:50.116Z,21.90
2017-08-25T21:11:20.616Z,21.70
2017-08-25T21:13:53.888Z,21.60
2017-08-25T21:16:22.938Z,21.80
2017-08-25T21:18:51.613Z,21.60
2017-08-25T21:21:19.366Z,21.40
2017-08-25T21:23:49.699Z,21.60
2017-08-25T21:26:17.323Z,21.30
2017-08-25T21:28:45.905Z,21.40
2017-08-25T21:31:16.544Z,21.40
2017-08-25T21:33:47.909Z,21.50
2017-08-25T21:36:17.495Z,21.60
2017-08-25T21:38:49.109Z,21.60
2017-08-25T21:41:19.846Z,21.60
2017-08-25T21:43:50.584Z,21.60
2017-08-25T21:46:18.915Z,21.50
2017-08-25T21:48:48.195Z,21.50
2017-08-25T21:51:16.429Z,21.40
2017-08-25T21:53:45.413Z,21.40
2017-08-25T21:56:14.898Z,21.40
2017-08-25T21:58:44.967Z,21.30
2017-08-25T22:01:15.312Z,21.30
2017-08-25T22:03:48.247Z,21.30
2017-08-25T22:06:21.967Z,21.30
2017-08-25T22:08:50.078Z,21.20
2017-08-25T22:11:19.936Z,21.10
2017-08-25T22:13:49.806Z,21.00
2017-08-25T22:16:19.523Z,21.00
2017-08-25T22:18:49.758Z,21.00
2017-08-25T22:21:19.131Z,20.90
2017-08-25T22:23:45.837Z,20.80
2017-08-25T22:26:20.338Z,20.60
2017-08-25T22:28:52.061Z,20.70
2017-08-25T22:31:25.046Z,20.80
2017-08-25T22:33:58.791Z,20.90
2017-08-25T22:36:29.142Z,20.90
2017-08-25T22:38:58.849Z,20.90
2017-08-25T22:41:28.884Z,21.00
2017-08-25T22:43:57.619Z,21.10
2017-08-25T22:46:28.654Z,21.10
2017-08-25T22:48:55.090Z,21.10
2017-08-25T22:51:28.226Z,21.10
2017-08-25T22:53:56.910Z,21.10
2017-08-25T22:56:25.367Z,21.10
2017-08-25T22:58:55.327Z,21.10
2017-08-25T23:01:28.725Z,21.10
2017-08-25T23:03:58.961Z,21.10
2017-08-25T23:06:28.865Z,21.20
2017-08-25T23:08:58.765Z,21.10
2017-08-25T23:11:29.088Z,21.10
2017-08-25T23:13:59.037Z,21.10
2017-08-25T23:16:30.988Z,21.10
2017-08-25T23:18:58.915Z,21.30
2017-08-25T23:21:25.904Z,21.10
2017-08-25T23:23:59.867Z,21.10
2017-08-25T23:26:28.970Z,20.90
2017-08-25T23:28:58.946Z,20.70
2017-08-25T23:31:27.777Z,20.70
2017-08-25T23:33:59.020Z,20.80
2017-08-25T23:36:26.667Z,20.90
2017-08-25T23:38:59.369Z,21.00
2017-08-25T23:41:28.738Z,21.10
2017-08-25T23:44:00.832Z,21.00
2017-08-25T23:46:29.165Z,21.00
2017-08-25T23:48:59.471Z,21.10
2017-08-25T23:51:28.916Z,21.10
2017-08-25T23:53:59.101Z,21.00
2017-08-25T23:56:26.308Z,21.00
2017-08-25T23:58:59.801Z,21.00
